Dreamer — V7SV8 — position and weather

sailwx.info

Track history (hours):
 
Tides and Currents Weather Stations Pressure Air Temp Water Temp Dewpoint Dewpoint Depression Visibility Wind Speed Wind Dir Waves Ship Positions

Dreamer

Last reported at 2018-Jun-20 19:07 UTC. Time now 2018-Jun-23 12:24 UTC.
Position N 26°08' W 080°07'.

Length 41 m; draft 2.4 m.

Type: Pleasure craft. MMSI: 538070685.

Date/timePositionNaut miles runAvg speedWind from/ knotsBaromVisibWave heightAir tempDewpointWater temp
2018-Jun-20 19:07N 26°08' W 080°07'1 2.5
2018-Jun-20 18:55N 26°08' W 080°07'1 0.1
2018-Jun-19 22:47N 26°07' W 080°06'1 2.6
2018-Jun-19 22:20N 26°06' W 080°07'1 4.2
2018-Jun-19 22:00N 26°06' W 080°06'611.8
2018-Jun-19 21:30N 26°05' W 079°59'4 7.0
2018-Jun-19 20:57N 26°04' W 079°55'510.7
2018-Jun-19 20:26N 26°04' W 080°01'3 6.0
2018-Jun-19 20:00N 26°02' W 079°58'612.6
2018-Jun-19 19:30N 25°60' W 079°52'1 1.8
2018-Jun-19 19:00N 26°01' W 079°51'1 2.2
2018-Jun-19 18:30N 26°02' W 079°51'1 2.1
2018-Jun-19 18:00N 26°03' W 079°51'1 2.2
2018-Jun-19 17:30N 26°04' W 079°51'1 2.2
2018-Jun-19 17:00N 26°05' W 079°51'6 6.0
2018-Jun-19 15:56N 26°05' W 079°58'3 8.3
2018-Jun-19 15:30N 26°06' W 079°54'510.8
2018-Jun-19 15:00N 26°06' W 079°48'611.3
2018-Jun-19 14:30N 26°06' W 079°42'  
Track history (hours):
 
Tides and Currents Weather Stations Pressure Air Temp Water Temp Dewpoint Dewpoint Depression Visibility Wind Speed Wind Dir Waves Ship Positions

Dreamer

Last reported at 2018-Jun-20 19:07 UTC. Time now 2018-Jun-23 12:24 UTC.
Position N 26°08' W 080°07'.

Length 41 m; draft 2.4 m.

Type: Pleasure craft. MMSI: 538070685.

Date/timePositionNaut miles runAvg speedWind from/ knotsBaromVisibWave heightAir tempDewpointWater temp
2018-Jun-20 19:07N 26°08' W 080°07'1 2.5
2018-Jun-20 18:55N 26°08' W 080°07'1 0.1
2018-Jun-19 22:47N 26°07' W 080°06'1 2.6
2018-Jun-19 22:20N 26°06' W 080°07'1 4.2
2018-Jun-19 22:00N 26°06' W 080°06'611.8
2018-Jun-19 21:30N 26°05' W 079°59'4 7.0
2018-Jun-19 20:57N 26°04' W 079°55'510.7
2018-Jun-19 20:26N 26°04' W 080°01'3 6.0
2018-Jun-19 20:00N 26°02' W 079°58'612.6
2018-Jun-19 19:30N 25°60' W 079°52'1 1.8
2018-Jun-19 19:00N 26°01' W 079°51'1 2.2
2018-Jun-19 18:30N 26°02' W 079°51'1 2.1
2018-Jun-19 18:00N 26°03' W 079°51'1 2.2
2018-Jun-19 17:30N 26°04' W 079°51'1 2.2
2018-Jun-19 17:00N 26°05' W 079°51'6 6.0
2018-Jun-19 15:56N 26°05' W 079°58'3 8.3
2018-Jun-19 15:30N 26°06' W 079°54'510.8
2018-Jun-19 15:00N 26°06' W 079°48'611.3
2018-Jun-19 14:30N 26°06' W 079°42'  

Dump ship's entire track history